| time (UTC) | temp C | wind direction | speed KPH | gust KPH | rain 1hr cm | rain 24hr cm | rain mn cm | humidity % | barometer mb |
| 20260506044508 | 10 | 307 | 0.0 | 3.2 | 0.00 | 0.00 | 0.00 | 58 | 1011.0 |
| 20260506043005 | 10 | 307 | 0.0 | 3.2 | 0.00 | 0.00 | 0.00 | 56 | 1010.7 |
| 20260506041504 | 11 | 271 | 0.0 | 3.2 | 0.00 | 0.00 | 0.00 | 53 | 1010.5 |
| 20260506040002 | 12 | 271 | 3.2 | 8.0 | 0.00 | 0.00 | 0.00 | 50 | 1010.4 |
| 20260506034615 | 13 | 124 | 0.0 | 3.2 | 0.00 | 0.00 | 0.00 | 47 | 1010.1 |
| 20260506033058 | 13 | 270 | 0.0 | 4.8 | 0.00 | 0.00 | 0.00 | 45 | 1009.7 |
| 20260506031607 | 14 | 342 | 0.0 | 1.6 | 0.00 | 0.00 | 0.00 | 43 | 1009.5 |
| 20260506030056 | 15 | 342 | 0.0 | 9.7 | 0.00 | 0.00 | 0.00 | 41 | 1009.4 |
| 20260506024613 | 15 | 100 | 1.6 | 8.0 | 0.00 | 0.00 | 0.00 | 40 | 1009.2 |
| 20260506023053 | 16 | 149 | 0.0 | 8.0 | 0.00 | 0.00 | 0.00 | 39 | 1009.0 |
| 20260506021553 | 16 | 304 | 3.2 | 6.4 | 0.00 | 0.00 | 0.00 | 40 | 1009.0 |
| 20260506020051 | 16 | 173 | 3.2 | 9.7 | 0.00 | 0.00 | 0.00 | 38 | 1008.9 |
| 20260506014551 | 17 | 146 | 3.2 | 12.9 | 0.00 | 0.00 | 0.00 | 36 | 1008.8 |
| 20260506013102 | 17 | 181 | 1.6 | 8.0 | 0.00 | 0.00 | 0.00 | 37 | 1008.5 |
| 20260506011603 | 18 | 61 | 1.6 | 9.7 | 0.00 | 0.00 | 0.00 | 34 | 1008.4 |
| 20260506010050 | 19 | 4 | 3.2 | 11.3 | 0.00 | 0.00 | 0.00 | 32 | 1008.4 |
| 20260506004546 | 19 | 70 | 4.8 | 9.7 | 0.00 | 0.00 | 0.00 | 34 | 1008.3 |
| 20260506003046 | 19 | 96 | 1.6 | 8.0 | 0.00 | 0.00 | 0.00 | 34 | 1008.2 |
| 20260506001546 | 19 | 50 | 6.4 | 11.3 | 0.00 | 0.00 | 0.00 | 34 | 1008.1 |
| 20260506000047 | 19 | 349 | 3.2 | 12.9 | 0.00 | 0.00 | 0.00 | 35 | 1008.0 |
| 20260505234544 | 18 | 24 | 1.6 | 9.7 | 0.00 | 0.00 | 0.00 | 37 | 1008.0 |
| 20260505233044 | 19 | 18 | 3.2 | 14.5 | 0.00 | 0.00 | 0.00 | 37 | 1007.9 |
| 20260505231544 | 20 | 104 | 1.6 | 9.7 | 0.00 | 0.00 | 0.00 | 35 | 1007.7 |
| 20260505230055 | 20 | 43 | 1.6 | 11.3 | 0.00 | 0.00 | 0.00 | 36 | 1007.7 |
| 20260505224546 | 20 | 52 | 4.8 | 14.5 | 0.00 | 0.00 | 0.00 | 37 | 1007.7 |
| 20260505223055 | 18 | 178 | 1.6 | 9.7 | 0.00 | 0.00 | 0.00 | 38 | 1007.5 |
| 20260505221542 | 19 | 50 | 3.2 | 9.7 | 0.00 | 0.00 | 0.00 | 37 | 1007.6 |
| 20260505220044 | 21 | 282 | 3.2 | 9.7 | 0.00 | 0.00 | 0.00 | 34 | 1007.6 |
| 20260505214541 | 22 | 247 | 3.2 | 11.3 | 0.00 | 0.00 | 0.00 | 32 | 1007.6 |
| 20260505213051 | 21 | 70 | 6.4 | 16.1 | 0.00 | 0.00 | 0.00 | 36 | 1007.6 |
| 20260505211536 | 21 | 79 | 8.0 | 14.5 | 0.00 | 0.00 | 0.00 | 35 | 1007.9 |
| 20260505210034 | 21 | 29 | 4.8 | 16.1 | 0.00 | 0.00 | 0.00 | 35 | 1007.9 |
| 20260505204532 | 21 | 75 | 6.4 | 14.5 | 0.00 | 0.00 | 0.00 | 33 | 1007.8 |
| 20260505203042 | 20 | 57 | 4.8 | 19.3 | 0.00 | 0.00 | 0.00 | 33 | 1007.7 |
| 20260505201528 | 20 | 189 | 4.8 | 19.3 | 0.00 | 0.00 | 0.00 | 33 | 1007.6 |
| 20260505200034 | 20 | 61 | 6.4 | 14.5 | 0.00 | 0.00 | 0.00 | 35 | 1007.9 |
| 20260505194525 | 20 | 49 | 3.2 | 12.9 | 0.00 | 0.00 | 0.00 | 37 | 1007.9 |
| 20260505193023 | 20 | 103 | 3.2 | 16.1 | 0.00 | 0.00 | 0.00 | 41 | 1008.0 |
| 20260505191521 | 20 | 87 | 4.8 | 9.7 | 0.00 | 0.00 | 0.00 | 41 | 1008.1 |
| 20260505190020 | 19 | 354 | 4.8 | 16.1 | 0.00 | 0.00 | 0.00 | 43 | 1008.1 |
| 20260505184522 | 18 | 285 | 3.2 | 22.5 | 0.00 | 0.00 | 0.00 | 44 | 1008.1 |
| 20260505183014 | 18 | 72 | 4.8 | 14.5 | 0.00 | 0.00 | 0.00 | 46 | 1008.1 |
| 20260505181513 | 18 | 64 | 4.8 | 12.9 | 0.00 | 0.00 | 0.00 | 46 | 1008.2 |
| 20260505180010 | 18 | 105 | 3.2 | 8.0 | 0.00 | 0.00 | 0.00 | 47 | 1008.1 |
| 20260505174506 | 17 | 310 | 4.8 | 8.0 | 0.00 | 0.00 | 0.00 | 47 | 1008.0 |
| 20260505173012 | 17 | 301 | 3.2 | 12.9 | 0.00 | 0.00 | 0.00 | 50 | 1008.0 |
| 20260505171601 | 16 | 347 | 3.2 | 8.0 | 0.00 | 0.00 | 0.00 | 51 | 1007.8 |
| 20260505170058 | 16 | 225 | 1.6 | 9.7 | 0.00 | 0.00 | 0.00 | 52 | 1007.8 |
| 20260505164602 | 16 | 331 | 1.6 | 9.7 | 0.00 | 0.00 | 0.00 | 55 | 1007.8 |
| 20260505163056 | 15 | 37 | 3.2 | 14.5 | 0.00 | 0.00 | 0.00 | 56 | 1007.8 |
| 20260505161550 | 15 | 229 | 1.6 | 6.4 | 0.00 | 0.00 | 0.00 | 60 | 1007.8 |
| 20260505153050 | 12 | 252 | 3.2 | 9.7 | 0.00 | 0.00 | 0.00 | 74 | 1007.9 |
| 20260505151541 | 10 | 45 | 1.6 | 3.2 | 0.00 | 0.00 | 0.00 | 79 | 1007.8 |
| 20260505124508 | 3 | 66 | 1.6 | 4.8 | 0.00 | 0.00 | 0.00 | 86 | 1007.0 |
| 20260505123005 | 3 | 66 | 0.0 | 0.0 | 0.00 | 0.00 | 0.00 | 86 | 1006.8 |
| 20260505121504 | 3 | 66 | 0.0 | 3.2 | 0.00 | 0.00 | 0.00 | 86 | 1006.7 |
| 20260505120003 | 3 | 66 | 1.6 | 4.8 | 0.00 | 0.00 | 0.00 | 85 | 1006.5 |
| 20260505114602 | 3 | 66 | 4.8 | 6.4 | 0.00 | 0.00 | 0.00 | 84 | 1006.5 |
| 20260505113102 | 3 | 77 | 0.0 | 4.8 | 0.00 | 0.00 | 0.00 | 82 | 1006.4 |
| 20260505111559 | 4 | 77 | 0.0 | 3.2 | 0.00 | 0.00 | 0.00 | 82 | 1006.3 |
| 20260505110105 | 4 | 77 | 0.0 | 3.2 | 0.00 | 0.00 | 0.00 | 82 | 1006.3 |
| 20260505101554 | 3 | 77 | 0.0 | 3.2 | 0.00 | 0.00 | 0.00 | 80 | 1006.4 |
| 20260505100054 | 3 | 77 | 0.0 | 1.6 | 0.00 | 0.00 | 0.00 | 79 | 1006.4 |
| 20260505094551 | 3 | 77 | 0.0 | 4.8 | 0.00 | 0.00 | 0.00 | 78 | 1006.2 |
| 20260505093047 | 3 | 77 | 1.6 | 3.2 | 0.00 | 0.00 | 0.00 | 77 | 1006.3 |
| 20260505091555 | 3 | 77 | 0.0 | 6.4 | 0.00 | 0.00 | 0.00 | 75 | 1006.2 |
| 20260505090053 | 4 | 197 | 0.0 | 1.6 | 0.00 | 0.00 | 0.00 | 74 | 1006.2 |
| 20260505084539 | 5 | 197 | 1.6 | 3.2 | 0.00 | 0.00 | 0.00 | 73 | 1006.1 |
| 20260505083042 | 5 | 197 | 0.0 | 1.6 | 0.00 | 0.00 | 0.00 | 72 | 1006.2 |
| 20260505081550 | 5 | 197 | 1.6 | 3.2 | 0.00 | 0.00 | 0.00 | 71 | 1006.4 |
| 20260505080040 | 6 | 197 | 0.0 | 4.8 | 0.00 | 0.00 | 0.00 | 69 | 1006.5 |
| 20260505074525 | 6 | 198 | 1.6 | 3.2 | 0.00 | 0.00 | 0.00 | 67 | 1006.6 |
| 20260505073022 | 7 | 198 | 0.0 | 3.2 | 0.00 | 0.00 | 0.00 | 66 | 1006.7 |
| 20260505071527 | 7 | 199 | 0.0 | 3.2 | 0.00 | 0.00 | 0.00 | 65 | 1006.6 |
| 20260505070026 | 8 | 199 | 0.0 | 1.6 | 0.00 | 0.00 | 0.00 | 61 | 1006.5 |
| 20260505064520 | 8 | 199 | 0.0 | 3.2 | 0.00 | 0.00 | 0.00 | 59 | 1006.4 |
| 20260505063026 | 9 | 199 | 0.0 | 1.6 | 0.00 | 0.00 | 0.00 | 57 | 1006.3 |
| 20260505061526 | 9 | 198 | 1.6 | 4.8 | 0.00 | 0.00 | 0.00 | 57 | 1006.3 |
| 20260505060019 | 9 | 197 | 1.6 | 4.8 | 0.00 | 0.00 | 0.00 | 58 | 1006.2 |
| 20260505054523 | 10 | 198 | 0.0 | 3.2 | 0.00 | 0.00 | 0.00 | 56 | 1006.0 |
| 20260505053018 | 10 | 199 | 1.6 | 4.8 | 0.00 | 0.00 | 0.00 | 54 | 1006.0 |
| 20260505051517 | 11 | 199 | 0.0 | 4.8 | 0.00 | 0.00 | 0.00 | 52 | 1005.9 |